Time;durP1;ratioP1;P1;durP2;ratioP2;P2;SDS_P1;SDS_P2;PMS_P1;PMS_P2;Temp;Humidity;BMP_temperature;BMP_pressure;BME280_temperature;BME280_humidity;BME280_pressure;Samples;Min_cycle;Max_cycle;Signal;HPM_P1;HPM_P2
2022/06/29 00:08:12;;;;;;;3.65;2.47;;;25.50;27.90;;;;;;21089677;28;20059;-57
2022/06/29 00:18:13;;;;;;;4.95;2.90;;;25.20;28.40;;;;;;21089073;28;20157;-57
2022/06/29 00:28:15;;;;;;;;;;;24.90;28.80;;;;;;21088655;28;20062;-57
2022/06/29 00:38:17;;;;;;;5.97;2.58;;;24.70;29.20;;;;;;21087722;28;20261;-60
2022/06/29 00:48:19;;;;;;;3.70;2.60;;;24.50;29.70;;;;;;21088181;28;20047;-61
2022/06/29 00:58:22;;;;;;;6.90;3.00;;;24.50;29.70;;;;;;21085569;28;20168;-61
2022/06/29 01:08:24;;;;;;;5.40;2.50;;;24.30;30.10;;;;;;21083022;28;20052;-56
2022/06/29 01:18:26;;;;;;;3.63;2.58;;;24.20;30.60;;;;;;21085070;28;20150;-58
2022/06/29 01:28:28;;;;;;;;;;;24.00;31.40;;;;;;21082589;28;20051;-61
2022/06/29 01:38:35;;;;;;;6.03;2.80;;;;;;;;;;21083055;28;19931;-62
2022/06/29 01:48:36;;;;;;;5.70;2.45;;;;;;;;;;21082228;28;20097;-56
2022/06/29 01:58:38;;;;;;;3.87;2.93;;;;;;;;;;21081433;28;20090;-60
2022/06/29 02:08:40;;;;;;;5.00;2.33;;;;;;;;;;21081041;28;20075;-58
2022/06/29 02:18:43;;;;;;;3.40;2.10;;;;;;;;;;21079463;28;20091;-59
2022/06/29 02:28:47;;;;;;;3.28;2.33;;;;;;;;;;21079845;28;20087;-61
2022/06/29 02:38:49;;;;;;;;;;;;;;;;;;21078526;28;20063;-59
2022/06/29 02:48:51;;;;;;;3.28;2.08;;;;;;;;;;21078240;28;19920;-61
2022/06/29 02:58:53;;;;;;;6.87;2.13;;;;;;;;;;21078504;28;20488;-61
2022/06/29 03:08:55;;;;;;;4.60;2.00;;;;;;;;;;21076799;28;20113;-58
2022/06/29 03:18:58;;;;;;;4.03;1.90;;;;;;;;;;21075420;28;20048;-57
2022/06/29 03:28:59;;;;;;;6.00;2.00;;;;;;;;;;21081863;28;20052;-57
2022/06/29 03:39:02;;;;;;;3.83;1.80;;;;;;;;;;21093575;28;20056;-56
2022/06/29 03:49:04;;;;;;;4.47;2.27;;;;;;;;;;21091301;28;20142;-57
2022/06/29 03:59:06;;;;;;;4.40;2.40;;;;;;;;;;21090484;28;20155;-57
2022/06/29 04:09:08;;;;;;;5.53;2.40;;;;;;;;;;21089358;28;20060;-60
2022/06/29 04:19:10;;;;;;;4.63;2.80;;;;;;;;;;21088422;28;20135;-57
2022/06/29 04:29:12;;;;;;;5.33;2.77;;;;;;;;;;21088475;28;20097;-57
2022/06/29 04:39:15;;;;;;;4.03;2.30;;;;;;;;;;21087155;28;20052;-56
2022/06/29 04:49:19;;;;;;;5.40;2.90;;;;;;;;;;21086124;28;20044;-59
2022/06/29 04:59:21;;;;;;;8.83;3.07;;;;;;;;;;21086928;28;20080;-58
2022/06/29 05:09:23;;;;;;;7.13;2.83;;;;;;;;;;21084882;28;20131;-58
2022/06/29 05:19:25;;;;;;;6.70;2.47;;;;;;;;;;21084294;28;20139;-63
2022/06/29 05:29:27;;;;;;;7.60;2.60;;;;;;;;;;21083797;28;20078;-59
2022/06/29 05:39:29;;;;;;;8.43;3.97;;;;;;;;;;21084156;28;20408;-63
2022/06/29 05:49:31;;;;;;;5.30;2.83;;;;;;;;;;21082679;28;20507;-59
2022/06/29 05:59:33;;;;;;;8.40;3.60;;;;;;;;;;21082244;28;20499;-58
2022/06/29 06:09:35;;;;;;;11.20;3.83;;;;;;;;;;21081036;28;20480;-58
2022/06/29 06:19:37;;;;;;;10.30;4.25;;;;;;;;;;21079779;28;20158;-59
2022/06/29 06:29:40;;;;;;;9.60;3.80;;;;;;;;;;21079003;28;20062;-56
2022/06/29 06:41:21;;;;;;;10.67;3.80;;;;;;;;;;21078686;28;20055;-58
2022/06/29 06:50:04;;;;;;;13.18;3.90;;;;;;;;;;21078386;28;20048;-58
2022/06/29 07:00:06;;;;;;;9.93;4.13;;;;;;;;;;21077906;28;20112;-60
2022/06/29 07:10:08;;;;;;;8.27;3.45;;;;;;;;;;21094595;28;20055;-60
2022/06/29 07:20:10;;;;;;;;;;;;;;;;;;21094664;28;20048;-59
2022/06/29 07:30:13;;;;;;;6.43;3.17;;;;;;;;;;21092743;28;19931;-58
2022/06/29 07:40:15;;;;;;;4.47;2.40;;;;;;;;;;21092732;28;20087;-61
2022/06/29 07:50:18;;;;;;;7.80;2.10;;;;;;;;;;21091203;28;20044;-62
2022/06/29 08:00:21;;;;;;;7.22;2.17;;;;;;;;;;21092364;28;20080;-63
2022/06/29 08:10:23;;;;;;;9.68;3.40;;;;;;;;;;21090395;28;20162;-57
2022/06/29 08:20:26;;;;;;;6.35;2.50;;;;;;;;;;21088245;28;20382;-64
2022/06/29 08:30:28;;;;;;;8.05;2.70;;;;;;;;;;21087057;28;20086;-59
2022/06/29 08:40:35;;;;;;;9.48;3.17;;;;;;;;;;21087792;28;20346;-58
2022/06/29 08:50:42;;;;;;;8.93;3.30;;;;;;;;;;21088307;28;20094;-57
2022/06/29 09:00:44;;;;;;;10.88;3.13;;;;;;;;;;21085838;28;20106;-56
2022/06/29 09:10:47;;;;;;;4.85;2.60;;;;;;;;;;21084301;28;20127;-57
2022/06/29 09:20:52;;;;;;;11.38;3.00;;;;;;;;;;21083374;28;20131;-59
2022/06/29 09:30:55;;;;;;;5.32;2.58;;;;;;;;;;21082158;28;20056;-60
2022/06/29 09:40:58;;;;;;;7.10;4.35;;;;;;;;;;21081644;28;20492;-56
2022/06/29 09:51:01;;;;;;;8.48;3.53;;;;;;;;;;21082294;28;20048;-58
2022/06/29 10:21:49;;;;;;;6.82;2.10;;;;;;;;;;21080472;28;20044;-61
2022/06/29 10:52:15;;;;;;;3.08;1.75;;;;;;;;;;21078739;28;20090;-60
2022/06/29 11:02:17;;;;;;;3.40;2.00;;;;;;;;;;21075506;28;20062;-55
2022/06/29 11:12:21;;;;;;;2.85;1.80;;;;;;;;;;21077177;28;20090;-57
2022/06/29 11:22:23;;;;;;;2.72;1.88;;;;;;;;;;21077604;28;20052;-64
2022/06/29 11:32:38;;;;;;;3.65;1.90;;;;;;;;;;21075536;28;20056;-54
2022/06/29 11:53:34;;;;;;;9.52;2.83;;;;;;;;;;20993628;28;20056;-61
2022/06/29 12:03:36;;;;;;;3.90;1.90;;;;;;;;;;21002195;28;20131;-62
2022/06/29 12:13:38;;;;;;;3.65;2.08;;;;;;;;;;20997074;28;20556;-55
2022/06/29 12:23:40;;;;;;;3.67;2.13;;;;;;;;;;20990537;28;20390;-59
2022/06/29 12:33:42;;;;;;;4.85;2.38;;;;;;;;;;21005256;28;20084;-60
2022/06/29 12:43:43;;;;;;;4.72;2.45;;;;;;;;;;21005345;28;20552;-58
2022/06/29 12:53:45;;;;;;;4.05;1.88;;;;;;;;;;21004081;28;20048;-59
2022/06/29 13:03:47;;;;;;;4.53;1.98;;;;;;;;;;21001583;28;20472;-64
2022/06/29 13:13:48;;;;;;;4.22;2.10;;;;;;;;;;21001112;28;20091;-60
2022/06/29 13:23:50;;;;;;;5.63;2.45;;;;;;;;;;21001299;28;20567;-58
2022/06/29 13:33:52;;;;;;;4.00;2.35;;;;;;;;;;20998880;28;20075;-62
2022/06/29 13:43:54;;;;;;;4.53;2.10;;;;;;;;;;20999392;28;20127;-59
2022/06/29 13:53:55;;;;;;;4.43;2.17;;;;;;;;;;20996926;28;20048;-63
2022/06/29 14:03:57;;;;;;;4.45;2.30;;;;;;;;;;20997188;28;20615;-64
2022/06/29 14:14:00;;;;;;;5.22;2.08;;;;;;;;;;20995614;28;20059;-62
2022/06/29 14:24:01;;;;;;;5.20;1.90;;;;;;;;;;20995785;28;20501;-58
2022/06/29 14:34:03;;;;;;;3.20;1.73;;;;;;;;;;20995163;28;20415;-61
2022/06/29 14:44:05;;;;;;;6.80;3.28;;;;;;;;;;20994505;28;20045;-62
2022/06/29 14:54:07;;;;;;;3.00;1.67;;;;;;;;;;20995922;28;20048;-64
2022/06/29 15:04:09;;;;;;;3.63;2.05;;;;;;;;;;20993544;28;20044;-62
2022/06/29 15:14:11;;;;;;;4.45;1.77;;;;;;;;;;20993218;28;20131;-58
2022/06/29 15:24:13;;;;;;;9.13;1.83;;;;;;;;;;20996930;28;20222;-59
2022/06/29 15:44:35;;;;;;;4.03;2.40;;;;;;;;;;21011086;28;20547;-61
2022/06/29 16:04:57;;;;;;;;;;;;;;;;;;21007536;28;20044;-63
2022/06/29 16:14:58;;;;;;;3.92;2.17;;;;;;;;;;21005344;28;19963;-57
2022/06/29 16:25:03;;;;;;;3.80;1.65;;;;;;;;;;21004824;28;20060;-61
2022/06/29 16:35:05;;;;;;;5.30;1.40;;;;;;;;;;21002174;28;20055;-63
2022/06/29 16:45:07;;;;;;;3.83;1.33;;;;;;;;;;21002603;28;20451;-64
2022/06/29 16:55:09;;;;;;;3.17;1.73;;;;;;;;;;21003040;28;20060;-58
2022/06/29 17:05:10;;;;;;;5.82;2.70;;;;;;;;;;21003341;28;20083;-60
2022/06/29 17:15:12;;;;;;;3.75;1.50;;;;;;;;;;21000991;28;20515;-55
2022/06/29 17:25:14;;;;;;;3.13;1.10;;;;;;;;;;20999012;28;20080;-57
2022/06/29 17:35:16;;;;;;;2.72;1.50;;;;;;;;;;21000351;28;20535;-60
2022/06/29 17:45:17;;;;;;;4.60;1.65;;;;;;;;;;20998280;28;20080;-62
2022/06/29 17:55:19;;;;;;;3.58;1.38;;;;;;;;;;20999368;28;20061;-58
2022/06/29 18:05:21;;;;;;;2.75;1.20;;;;;;;;;;20996058;28;20078;-60
2022/06/29 18:15:24;;;;;;;3.05;1.33;;;;;;;;;;20995445;28;20052;-57
2022/06/29 18:25:27;;;;;;;6.28;1.80;;;;;;;;;;21015557;28;20166;-61
2022/06/29 18:35:29;;;;;;;2.70;1.30;;;;;;;;;;21070518;28;20048;-64
2022/06/29 18:45:31;;;;;;;6.63;1.63;;;;;;;;;;21066815;28;20063;-64
2022/06/29 18:55:33;;;;;;;3.28;1.73;;;;;;;;;;21054163;28;20055;-60
2022/06/29 19:05:35;;;;;;;4.32;1.48;;;;;;;;;;21072104;28;20048;-64
2022/06/29 19:15:38;;;;;;;3.63;1.20;;;;;;;;;;21050660;28;20060;-58
2022/06/29 19:25:40;;;;;;;4.97;1.95;;;;;;;;;;21010876;28;20102;-62
2022/06/29 19:35:42;;;;;;;4.57;2.50;;;;;;;;;;21074752;28;20124;-61
2022/06/29 19:45:44;;;;;;;5.68;1.60;;;;;;;;;;21077437;28;20044;-64
2022/06/29 19:55:46;;;;;;;3.83;2.08;;;;;;;;;;21076709;28;20044;-67
2022/06/29 20:05:49;;;;;;;3.83;1.80;;;;;;;;;;21074785;28;20138;-59
2022/06/29 20:15:51;;;;;;;2.50;1.50;;;;;;;;;;21086131;28;20105;-66
2022/06/29 20:25:53;;;;;;;4.30;1.80;;;;;;;;;;21088811;28;20052;-67
2022/06/29 20:35:56;;;;;;;3.72;1.55;;;;;;;;;;21088440;28;20502;-59
2022/06/29 20:45:58;;;;;;;7.13;3.72;;;;;;;;;;21087495;28;20097;-60
2022/06/29 20:56:02;;;;;;;4.93;1.95;;;;;;;;;;21088029;28;20560;-65
2022/06/29 21:06:04;;;;;;;4.78;1.35;;;;;;;;;;21085500;28;20454;-63
2022/06/29 21:16:06;;;;;;;6.25;2.80;;;;;;;;;;21083786;28;20081;-61
2022/06/29 21:26:09;;;;;;;3.97;1.40;;;;;;;;;;21083944;28;20060;-60
2022/06/29 21:36:11;;;;;;;4.57;1.63;;;;;;;;;;21082719;28;20048;-64
2022/06/29 21:46:13;;;;;;;3.88;2.13;;;;;;;;;;21084335;28;20389;-72
2022/06/29 21:56:15;;;;;;;2.78;1.60;;;;;;;;;;21085027;28;20476;-62
2022/06/29 22:06:18;;;;;;;5.60;3.35;;;;;;;;;;21082074;28;20048;-70
2022/06/29 22:16:22;;;;;;;3.70;1.90;;;;;;;;;;21082907;28;20381;-60
2022/06/29 22:26:24;;;;;;;1.92;0.95;;;;;;;;;;21083330;28;20044;-72
2022/06/29 22:36:26;;;;;;;3.50;1.50;;;;;;;;;;21098995;28;20082;-67
2022/06/29 22:46:28;;;;;;;3.05;1.08;;;;;;;;;;21087306;28;20487;-64
2022/06/29 22:56:30;;;;;;;2.25;1.10;;;;;;;;;;21060753;28;20484;-62
2022/06/29 23:06:32;;;;;;;3.33;1.67;;;;;;;;;;21078015;28;20106;-65
2022/06/29 23:16:34;;;;;;;2.95;1.40;;;;;;;;;;21077147;28;20047;-60
2022/06/29 23:26:36;;;;;;;4.43;2.22;;;;;;;;;;21077180;28;20044;-59
2022/06/29 23:36:38;;;;;;;4.68;2.55;;;;;;;;;;21076840;28;20476;-59
2022/06/29 23:46:41;;;;;;;4.60;2.78;;;;;;;;;;21083818;28;20477;-62
2022/06/29 23:56:43;;;;;;;;;;;;;;;;;;21092857;28;20408;-63
